Time;durP1;ratioP1;P1;durP2;ratioP2;P2;SDS_P1;SDS_P2;PMS_P1;PMS_P2;Temp;Humidity;BMP_temperature;BMP_pressure;BME280_temperature;BME280_humidity;BME280_pressure;Samples;Min_cycle;Max_cycle;Signal;HPM_P1;HPM_P2
2022/03/07 00:01:53;;;;;;;4.77;4.23;;;2.30;73.60;;;;;;5053488;28;20169;-67
2022/03/07 00:04:19;;;;;;;3.85;3.40;;;2.30;73.70;;;;;;5053090;28;20517;-66
2022/03/07 00:06:46;;;;;;;3.85;3.55;;;2.30;74.00;;;;;;5053345;28;20715;-66
2022/03/07 00:09:13;;;;;;;5.82;4.63;;;2.30;74.30;;;;;;5053331;28;20249;-66
2022/03/07 00:11:39;;;;;;;5.40;3.83;;;2.30;74.50;;;;;;5053453;28;20170;-66
2022/03/07 00:14:05;;;;;;;5.10;4.40;;;2.30;75.10;;;;;;5053012;28;20180;-66
2022/03/07 00:16:30;;;;;;;8.27;5.70;;;2.20;75.40;;;;;;5035480;28;20180;-66
2022/03/07 00:18:57;;;;;;;4.07;3.63;;;2.20;75.80;;;;;;5053192;28;20639;-66
2022/03/07 00:21:23;;;;;;;3.42;3.13;;;2.20;76.20;;;;;;5037804;28;20271;-66
2022/03/07 00:23:48;;;;;;;4.82;4.32;;;2.20;76.20;;;;;;5039079;28;20235;-66
2022/03/07 00:26:14;;;;;;;4.83;4.40;;;2.20;76.00;;;;;;5057264;28;20224;-66
2022/03/07 00:28:40;;;;;;;3.40;2.73;;;2.10;76.20;;;;;;5057202;28;20299;-66
2022/03/07 00:31:06;;;;;;;6.00;4.70;;;2.10;76.30;;;;;;5057195;28;20248;-66
2022/03/07 00:33:32;;;;;;;4.40;4.00;;;2.10;76.70;;;;;;5056825;28;20872;-66
2022/03/07 00:35:58;;;;;;;6.63;5.05;;;2.00;76.60;;;;;;5056907;28;20208;-66
2022/03/07 00:38:24;;;;;;;3.92;3.70;;;2.10;76.90;;;;;;5057184;28;20177;-65
2022/03/07 00:40:50;;;;;;;3.73;3.30;;;2.00;76.80;;;;;;5057014;28;20171;-65
2022/03/07 00:43:16;;;;;;;4.77;3.70;;;2.00;76.70;;;;;;5056834;28;20559;-66
2022/03/07 00:45:41;;;;;;;5.30;3.90;;;2.00;76.30;;;;;;5056808;28;20264;-66
2022/03/07 00:48:07;;;;;;;5.87;3.73;;;2.00;76.00;;;;;;5056977;28;20475;-66
2022/03/07 00:50:33;;;;;;;4.60;3.83;;;1.90;76.10;;;;;;5056810;28;20227;-66
2022/03/07 00:52:59;;;;;;;2.97;2.77;;;1.90;76.20;;;;;;5056678;28;20640;-66
2022/03/07 00:55:25;;;;;;;4.30;3.85;;;1.90;76.60;;;;;;5056505;28;20511;-66
2022/03/07 00:57:51;;;;;;;3.60;3.30;;;1.90;76.50;;;;;;5056879;28;20248;-66
2022/03/07 01:00:16;;;;;;;5.40;4.03;;;1.90;76.20;;;;;;5056775;28;20639;-65
2022/03/07 01:02:42;;;;;;;3.07;2.80;;;1.90;76.20;;;;;;5056567;28;20710;-67
2022/03/07 01:05:08;;;;;;;3.40;3.10;;;1.80;75.80;;;;;;5056193;28;20818;-65
2022/03/07 01:07:34;;;;;;;5.13;3.23;;;1.80;75.80;;;;;;5056525;28;20895;-65
2022/03/07 01:10:01;;;;;;;5.73;3.73;;;1.80;75.70;;;;;;5056713;28;20419;-66
2022/03/07 01:12:26;;;;;;;5.30;3.40;;;1.80;76.40;;;;;;5056568;28;20430;-65
2022/03/07 01:14:52;;;;;;;5.27;3.97;;;1.70;75.60;;;;;;5055948;28;20264;-67
2022/03/07 01:17:18;;;;;;;5.47;4.97;;;1.70;75.80;;;;;;5057128;28;20619;-65
2022/03/07 01:19:43;;;;;;;3.13;2.63;;;1.70;75.90;;;;;;5056748;28;20252;-66
2022/03/07 01:22:09;;;;;;;3.03;2.77;;;1.70;76.00;;;;;;5056194;28;20563;-66
2022/03/07 01:24:36;;;;;;;2.73;2.57;;;1.70;75.80;;;;;;5055784;28;20563;-66
2022/03/07 01:27:03;;;;;;;3.38;2.83;;;1.70;75.80;;;;;;5056317;28;20481;-66
2022/03/07 01:29:28;;;;;;;5.90;3.67;;;1.60;75.90;;;;;;5056041;28;20196;-66
2022/03/07 01:31:54;;;;;;;6.03;3.10;;;1.60;76.10;;;;;;5055120;28;20520;-67
2022/03/07 01:34:20;;;;;;;3.40;3.10;;;1.60;76.20;;;;;;5055648;28;20208;-66
2022/03/07 01:36:45;;;;;;;3.33;2.20;;;1.60;76.20;;;;;;5056018;28;20208;-65
2022/03/07 01:39:11;;;;;;;3.77;3.27;;;1.50;76.10;;;;;;5055996;28;20624;-66
2022/03/07 01:41:37;;;;;;;4.10;3.80;;;1.50;75.80;;;;;;5056132;28;20526;-66
2022/03/07 01:44:03;;;;;;;3.72;3.00;;;1.50;75.50;;;;;;5055345;28;20589;-67
2022/03/07 01:46:31;;;;;;;5.10;4.07;;;1.40;75.40;;;;;;5055944;28;20166;-66
2022/03/07 01:48:57;;;;;;;3.40;3.10;;;1.40;75.50;;;;;;5055827;28;20396;-66
2022/03/07 01:51:23;;;;;;;2.87;2.67;;;1.40;75.60;;;;;;5055974;28;20166;-66
2022/03/07 01:53:48;;;;;;;3.73;2.60;;;1.30;75.30;;;;;;5055406;28;20517;-66
2022/03/07 01:56:14;;;;;;;3.00;2.80;;;1.30;75.70;;;;;;5055744;28;20315;-66
2022/03/07 01:58:40;;;;;;;3.70;3.13;;;1.20;75.60;;;;;;5055953;28;20217;-66
2022/03/07 02:01:05;;;;;;;4.53;3.37;;;1.20;75.50;;;;;;5055479;28;20174;-66
2022/03/07 02:03:31;;;;;;;3.40;3.10;;;1.20;75.70;;;;;;5054916;28;20185;-67
2022/03/07 02:05:57;;;;;;;3.60;3.27;;;1.10;75.90;;;;;;5055734;28;20189;-65
2022/03/07 02:08:23;;;;;;;4.28;2.85;;;1.10;76.00;;;;;;5055606;28;20173;-66
2022/03/07 02:10:49;;;;;;;4.13;2.90;;;1.00;76.70;;;;;;5055318;28;20165;-65
2022/03/07 02:13:17;;;;;;;4.00;3.70;;;1.00;75.90;;;;;;5055168;28;20400;-66
2022/03/07 02:15:43;;;;;;;3.03;2.65;;;0.90;76.20;;;;;;5055293;28;20239;-66
2022/03/07 02:18:09;;;;;;;2.40;2.30;;;0.80;76.30;;;;;;5055172;28;20190;-66
2022/03/07 02:20:36;;;;;;;3.88;2.65;;;0.80;76.60;;;;;;5055321;28;20166;-66
2022/03/07 02:23:01;;;;;;;2.78;2.63;;;0.70;76.60;;;;;;5055250;28;20166;-66
2022/03/07 02:25:27;;;;;;;5.13;3.80;;;0.70;76.90;;;;;;5054837;28;20254;-65
2022/03/07 02:27:53;;;;;;;4.63;3.97;;;0.60;77.40;;;;;;5054980;28;20487;-66
2022/03/07 02:30:18;;;;;;;5.60;3.97;;;0.60;77.30;;;;;;5054906;28;20170;-65
2022/03/07 02:32:44;;;;;;;3.57;3.37;;;0.50;77.40;;;;;;5055179;28;20170;-66
2022/03/07 02:35:14;;;;;;;2.03;1.87;;;0.50;77.60;;;;;;5054642;28;20207;-65
2022/03/07 02:37:41;;;;;;;3.58;3.15;;;0.50;77.60;;;;;;5054803;28;20702;-65
2022/03/07 02:40:07;;;;;;;4.50;3.42;;;0.40;77.70;;;;;;5054936;28;20170;-65
2022/03/07 02:42:33;;;;;;;4.25;3.95;;;0.40;78.10;;;;;;5054669;28;20178;-66
2022/03/07 02:44:58;;;;;;;3.77;3.13;;;0.30;78.30;;;;;;5053977;28;20251;-66
2022/03/07 02:47:24;;;;;;;4.03;2.90;;;0.30;78.10;;;;;;5054957;28;20169;-66
2022/03/07 02:49:50;;;;;;;3.47;3.17;;;0.30;78.10;;;;;;5054749;28;20166;-66
2022/03/07 02:52:16;;;;;;;4.90;3.27;;;0.20;78.00;;;;;;5054758;28;20210;-66
2022/03/07 02:54:41;;;;;;;5.43;2.97;;;0.10;78.00;;;;;;5054025;28;20502;-67
2022/03/07 02:57:08;;;;;;;4.30;3.60;;;0.10;78.20;;;;;;5054430;28;20703;-66
2022/03/07 02:59:34;;;;;;;4.20;3.90;;;0.10;78.20;;;;;;5054525;28;20559;-66
2022/03/07 03:02:00;;;;;;;4.43;4.03;;;0.10;78.30;;;;;;5054364;28;20173;-66
2022/03/07 03:04:26;;;;;;;2.17;2.00;;;0.10;78.40;;;;;;5053884;28;20216;-66
2022/03/07 03:06:51;;;;;;;2.67;2.03;;;0.10;78.40;;;;;;5054606;28;20162;-66
2022/03/07 03:09:17;;;;;;;4.50;2.40;;;0.00;78.20;;;;;;5054310;28;20257;-67
2022/03/07 03:11:42;;;;;;;3.03;1.43;;;0.00;78.20;;;;;;5054583;28;20220;-67
2022/03/07 03:14:08;;;;;;;4.67;3.77;;;-0.10;78.40;;;;;;5054206;28;20189;-67
2022/03/07 03:16:34;;;;;;;3.97;3.67;;;-0.10;78.50;;;;;;5054140;28;20177;-66
2022/03/07 03:18:59;;;;;;;4.67;2.87;;;-0.20;78.80;;;;;;5054165;28;20744;-66
2022/03/07 03:21:25;;;;;;;3.53;2.73;;;-0.20;78.90;;;;;;5054171;28;20177;-66
2022/03/07 03:23:51;;;;;;;3.67;3.37;;;-0.20;78.90;;;;;;5053615;28;20210;-66
2022/03/07 03:26:17;;;;;;;2.97;2.20;;;-0.30;79.10;;;;;;5054216;28;20504;-66
2022/03/07 03:28:42;;;;;;;3.17;2.87;;;-0.30;79.80;;;;;;5054037;28;20184;-65
2022/03/07 03:31:11;;;;;;;5.00;2.70;;;-0.40;80.20;;;;;;5053937;28;20405;-66
2022/03/07 03:33:37;;;;;;;2.75;2.15;;;-0.30;80.50;;;;;;5053508;28;20166;-66
2022/03/07 03:36:03;;;;;;;3.22;2.95;;;-0.40;80.60;;;;;;5053782;28;20189;-66
2022/03/07 03:38:29;;;;;;;2.70;2.50;;;-0.30;80.60;;;;;;5053795;28;20174;-65
2022/03/07 03:40:55;;;;;;;3.10;2.83;;;-0.30;80.30;;;;;;5053694;28;20407;-65
2022/03/07 03:43:21;;;;;;;2.63;2.47;;;-0.30;80.20;;;;;;5053176;28;20651;-67
2022/03/07 03:45:47;;;;;;;7.25;3.40;;;-0.30;80.40;;;;;;5053557;28;20232;-66
2022/03/07 03:48:13;;;;;;;5.53;2.27;;;-0.30;80.70;;;;;;5053644;28;20709;-66
2022/03/07 03:50:38;;;;;;;2.13;1.93;;;-0.30;80.80;;;;;;5053536;28;20170;-65
2022/03/07 03:53:04;;;;;;;4.07;3.67;;;-0.30;80.80;;;;;;5053255;28;20662;-68
2022/03/07 03:55:30;;;;;;;2.70;2.60;;;-0.30;80.90;;;;;;5052796;28;20443;-67
2022/03/07 03:57:55;;;;;;;4.07;3.50;;;-0.40;80.90;;;;;;5053386;28;20170;-67
2022/03/07 04:00:23;;;;;;;7.20;3.27;;;-0.40;80.90;;;;;;5053380;28;20175;-65
2022/03/07 04:02:49;;;;;;;7.32;3.78;;;-0.40;80.80;;;;;;5053319;28;20231;-67
2022/03/07 04:05:15;;;;;;;3.63;3.40;;;-0.40;80.80;;;;;;5053129;28;20671;-65
2022/03/07 04:07:42;;;;;;;5.63;3.03;;;-0.40;81.10;;;;;;5053370;28;20162;-66
2022/03/07 04:10:09;;;;;;;4.78;4.35;;;-0.40;81.10;;;;;;5053166;28;20252;-65
2022/03/07 04:12:35;;;;;;;3.78;3.38;;;-0.40;81.20;;;;;;5053218;28;20168;-66
2022/03/07 04:15:01;;;;;;;3.10;2.90;;;-0.40;81.30;;;;;;5052914;28;20194;-66
2022/03/07 04:17:26;;;;;;;2.13;2.00;;;-0.50;81.40;;;;;;5053074;28;20400;-66
2022/03/07 04:19:52;;;;;;;2.10;1.93;;;-0.60;82.00;;;;;;5053336;28;20962;-65
2022/03/07 04:22:18;;;;;;;6.40;3.20;;;-0.60;82.00;;;;;;5053216;28;20222;-65
2022/03/07 04:24:43;;;;;;;3.17;2.97;;;-0.60;82.10;;;;;;5052658;28;20254;-65
2022/03/07 04:27:09;;;;;;;2.67;2.47;;;-0.70;82.60;;;;;;5053089;28;20590;-66
2022/03/07 04:29:34;;;;;;;3.90;3.00;;;-0.70;83.10;;;;;;5053158;28;20161;-65
2022/03/07 04:32:00;;;;;;;2.03;1.93;;;-0.70;83.30;;;;;;5053229;28;20708;-65
2022/03/07 04:34:26;;;;;;;2.85;2.50;;;-0.80;83.90;;;;;;5052605;28;20556;-65
2022/03/07 04:36:52;;;;;;;3.78;3.38;;;-0.80;84.50;;;;;;5053124;28;20172;-67
2022/03/07 04:39:18;;;;;;;6.23;3.23;;;-0.90;84.60;;;;;;5052967;28;20178;-65
2022/03/07 04:41:44;;;;;;;3.40;3.23;;;-0.90;84.90;;;;;;5053016;28;20503;-66
2022/03/07 04:44:10;;;;;;;3.92;3.45;;;-0.90;85.10;;;;;;5052580;28;20551;-66
2022/03/07 04:46:36;;;;;;;4.32;4.03;;;-0.90;85.40;;;;;;5035162;28;20636;-66
2022/03/07 04:49:02;;;;;;;4.83;3.47;;;-0.90;85.60;;;;;;5052862;28;20181;-66
2022/03/07 04:51:28;;;;;;;4.17;2.90;;;-0.90;85.90;;;;;;5052943;28;20487;-66
2022/03/07 04:53:53;;;;;;;4.07;3.77;;;-0.90;86.00;;;;;;5052658;28;20408;-67
2022/03/07 04:56:19;;;;;;;3.30;3.10;;;-1.00;86.60;;;;;;5052907;28;20178;-65
2022/03/07 04:58:45;;;;;;;4.57;3.10;;;-0.90;86.80;;;;;;5052894;28;20178;-66
2022/03/07 05:01:10;;;;;;;6.10;4.10;;;-0.90;87.10;;;;;;5052816;28;20177;-65
2022/03/07 05:03:36;;;;;;;3.87;3.23;;;-0.90;87.20;;;;;;5052426;28;20260;-66
2022/03/07 05:06:03;;;;;;;4.57;4.18;;;-0.90;87.40;;;;;;5052611;28;20190;-66
2022/03/07 05:08:28;;;;;;;4.25;3.30;;;-0.80;87.70;;;;;;5056939;28;20173;-65
2022/03/07 05:10:54;;;;;;;5.07;4.00;;;-0.80;87.90;;;;;;5056858;28;20251;-65
2022/03/07 05:13:20;;;;;;;4.23;2.80;;;-0.70;88.00;;;;;;5056027;28;20215;-65
2022/03/07 05:15:45;;;;;;;8.83;4.53;;;-0.70;88.30;;;;;;5056451;28;20185;-66
2022/03/07 05:18:11;;;;;;;7.37;4.20;;;-0.70;88.60;;;;;;5056449;28;20201;-66
2022/03/07 05:20:36;;;;;;;5.10;4.60;;;-0.70;88.70;;;;;;5056188;28;20173;-66
2022/03/07 05:23:02;;;;;;;4.23;3.80;;;-0.70;89.10;;;;;;5055935;28;20188;-66
2022/03/07 05:25:28;;;;;;;7.67;4.13;;;-0.70;89.40;;;;;;5038580;28;20205;-66
2022/03/07 05:27:54;;;;;;;4.53;2.90;;;-0.60;89.40;;;;;;5057946;28;20165;-66
2022/03/07 05:30:21;;;;;;;3.70;3.40;;;-0.60;89.30;;;;;;5058543;28;20586;-65
2022/03/07 05:32:53;;;;;;;6.50;5.85;;;-0.60;89.30;;;;;;5058658;28;20404;-66
2022/03/07 05:35:21;;;;;;;4.32;3.15;;;-0.60;90.00;;;;;;5059306;28;20189;-65
2022/03/07 05:37:47;;;;;;;3.40;3.20;;;-0.60;90.00;;;;;;5057271;28;20552;-65
2022/03/07 05:40:14;;;;;;;4.32;3.13;;;-0.60;90.00;;;;;;5056736;28;20265;-66
2022/03/07 05:42:41;;;;;;;3.75;2.95;;;-0.60;90.20;;;;;;5057148;28;20177;-66
2022/03/07 05:45:08;;;;;;;6.47;4.13;;;-0.60;90.20;;;;;;5057572;28;20201;-66
2022/03/07 05:47:34;;;;;;;5.82;4.68;;;-0.60;90.10;;;;;;5057904;28;20174;-65
2022/03/07 05:49:59;;;;;;;4.80;4.40;;;-0.60;90.40;;;;;;5056790;28;20176;-67
2022/03/07 05:52:25;;;;;;;1.67;1.57;;;-0.50;90.40;;;;;;5056823;28;20928;-65
2022/03/07 05:54:51;;;;;;;3.17;2.97;;;-0.50;90.30;;;;;;5056657;28;20431;-66
2022/03/07 05:57:17;;;;;;;4.07;3.77;;;-0.50;90.20;;;;;;5055245;28;20415;-65
2022/03/07 05:59:43;;;;;;;5.37;3.57;;;-0.50;90.20;;;;;;5055411;28;20227;-66
2022/03/07 06:02:08;;;;;;;3.90;3.60;;;-0.50;90.10;;;;;;5037282;28;20587;-66
2022/03/07 06:04:34;;;;;;;4.57;3.77;;;-0.40;90.20;;;;;;5054678;28;20783;-65
2022/03/07 06:07:00;;;;;;;3.07;2.70;;;-0.50;90.20;;;;;;5055225;28;20438;-65
2022/03/07 06:09:25;;;;;;;7.10;2.67;;;-0.40;90.40;;;;;;5054677;28;20192;-66
2022/03/07 06:11:51;;;;;;;4.97;3.33;;;-0.40;90.00;;;;;;5053065;28;20220;-67
2022/03/07 06:14:17;;;;;;;10.57;4.00;;;-0.30;89.70;;;;;;5052595;28;20279;-67
2022/03/07 06:16:42;;;;;;;4.80;2.90;;;-0.20;89.80;;;;;;5053013;28;20639;-67
2022/03/07 06:19:08;;;;;;;3.47;3.27;;;-0.20;89.90;;;;;;5052310;28;20234;-68
2022/03/07 06:21:34;;;;;;;4.33;2.60;;;-0.10;89.10;;;;;;5052945;28;20165;-66
2022/03/07 06:23:59;;;;;;;4.30;3.03;;;-0.10;89.10;;;;;;5052336;28;20209;-66
2022/03/07 06:26:25;;;;;;;3.73;3.53;;;0.10;88.90;;;;;;5054826;28;20400;-65
2022/03/07 06:28:51;;;;;;;5.43;5.03;;;0.20;88.80;;;;;;5055075;28;20180;-65
2022/03/07 06:31:17;;;;;;;4.90;3.10;;;0.50;88.60;;;;;;5054932;28;20291;-68
2022/03/07 06:33:43;;;;;;;2.85;2.63;;;0.70;87.80;;;;;;5054601;28;20167;-66
2022/03/07 06:36:09;;;;;;;3.50;3.00;;;1.00;87.30;;;;;;5054698;28;20185;-63
2022/03/07 06:38:35;;;;;;;4.47;4.03;;;1.20;86.60;;;;;;5054899;28;20759;-67
2022/03/07 06:41:01;;;;;;;4.13;3.80;;;1.50;85.70;;;;;;5054624;28;20407;-66
2022/03/07 06:43:26;;;;;;;5.80;4.13;;;1.90;84.60;;;;;;5054351;28;20219;-67
2022/03/07 06:45:53;;;;;;;4.17;3.77;;;2.30;83.20;;;;;;5054586;28;20416;-65
2022/03/07 06:48:18;;;;;;;4.93;4.35;;;2.70;82.30;;;;;;5054637;28;20172;-66
2022/03/07 06:50:44;;;;;;;4.73;4.33;;;3.10;81.30;;;;;;5054444;28;20610;-66
2022/03/07 06:53:10;;;;;;;6.00;4.77;;;3.40;78.70;;;;;;5036199;28;20535;-66
2022/03/07 06:55:35;;;;;;;5.67;4.13;;;3.70;78.40;;;;;;5054504;28;20192;-67
2022/03/07 06:58:01;;;;;;;5.87;5.00;;;3.90;77.20;;;;;;5054460;28;20223;-66
2022/03/07 07:00:28;;;;;;;6.40;3.70;;;4.20;76.60;;;;;;5054367;28;20208;-67
2022/03/07 07:02:54;;;;;;;6.05;4.97;;;4.50;74.80;;;;;;5054277;28;20170;-65
2022/03/07 07:05:19;;;;;;;6.33;4.77;;;4.70;74.20;;;;;;5053724;28;20586;-64
2022/03/07 07:07:45;;;;;;;3.83;3.53;;;4.90;74.50;;;;;;5054150;28;20170;-66
2022/03/07 07:10:11;;;;;;;7.10;5.43;;;5.40;73.60;;;;;;5054151;28;20660;-66
2022/03/07 07:12:38;;;;;;;5.15;4.43;;;5.70;72.90;;;;;;5054078;28;20165;-65
2022/03/07 07:15:06;;;;;;;6.15;4.90;;;6.10;70.10;;;;;;5053671;28;20193;-66
2022/03/07 07:17:33;;;;;;;5.95;4.85;;;6.00;68.40;;;;;;5054131;28;20520;-66
2022/03/07 07:19:59;;;;;;;4.90;4.40;;;5.90;68.50;;;;;;5054062;28;20715;-64
2022/03/07 07:22:25;;;;;;;4.90;4.50;;;6.10;69.00;;;;;;5053928;28;20179;-65
2022/03/07 07:24:51;;;;;;;6.03;5.37;;;6.30;68.20;;;;;;5053387;28;20482;-65
2022/03/07 07:27:17;;;;;;;6.25;5.07;;;6.50;68.10;;;;;;5053960;28;20169;-65
2022/03/07 07:29:46;;;;;;;4.33;3.90;;;6.90;67.00;;;;;;5053049;28;20223;-68
2022/03/07 07:32:11;;;;;;;3.97;3.05;;;7.20;66.50;;;;;;5053427;28;20244;-66
2022/03/07 07:34:37;;;;;;;5.50;3.83;;;7.90;65.50;;;;;;5053362;28;20193;-66
2022/03/07 07:37:03;;;;;;;5.27;4.50;;;8.50;62.90;;;;;;5053692;28;20635;-66
2022/03/07 07:39:28;;;;;;;6.50;4.97;;;9.10;62.40;;;;;;5053874;28;20174;-65
2022/03/07 07:41:56;;;;;;;7.60;5.50;;;9.50;60.20;;;;;;5053850;28;20446;-66
2022/03/07 07:44:21;;;;;;;6.70;5.07;;;9.70;58.90;;;;;;5053010;28;20207;-66
2022/03/07 07:46:47;;;;;;;7.80;6.03;;;9.80;58.80;;;;;;5053641;28;20407;-66
2022/03/07 07:49:13;;;;;;;4.97;4.40;;;10.20;57.90;;;;;;5053315;28;20306;-65
2022/03/07 07:51:39;;;;;;;5.60;5.10;;;10.50;57.20;;;;;;5053431;28;20176;-65
2022/03/07 07:54:05;;;;;;;7.17;6.10;;;10.60;56.10;;;;;;5035078;28;20412;-65
2022/03/07 07:56:31;;;;;;;4.20;3.80;;;10.90;55.30;;;;;;5053456;28;20176;-65
2022/03/07 07:58:56;;;;;;;4.80;4.40;;;11.00;54.30;;;;;;5053312;28;20969;-64
2022/03/07 08:01:23;;;;;;;5.97;5.23;;;10.80;54.60;;;;;;5053449;28;20263;-66
2022/03/07 08:03:49;;;;;;;4.83;4.30;;;10.50;54.30;;;;;;5052764;28;20254;-65
2022/03/07 08:06:15;;;;;;;4.77;4.30;;;10.40;54.50;;;;;;5053141;28;20485;-65
2022/03/07 08:08:40;;;;;;;5.30;4.80;;;10.20;55.00;;;;;;5035349;28;20408;-66
2022/03/07 08:11:06;;;;;;;5.10;4.60;;;10.40;55.00;;;;;;5053164;28;20166;-65
2022/03/07 08:13:32;;;;;;;5.33;4.83;;;10.30;54.20;;;;;;5052925;28;20172;-65
2022/03/07 08:15:57;;;;;;;5.37;4.53;;;10.30;54.30;;;;;;5035232;28;20250;-66
2022/03/07 08:18:23;;;;;;;5.73;5.20;;;10.00;54.20;;;;;;5053172;28;20407;-67
2022/03/07 08:20:50;;;;;;;6.10;5.37;;;9.70;55.50;;;;;;5053383;28;20577;-66
2022/03/07 08:23:16;;;;;;;5.53;5.03;;;9.50;56.30;;;;;;5052995;28;20412;-67
2022/03/07 08:25:41;;;;;;;8.33;6.27;;;9.40;55.70;;;;;;5052942;28;20520;-66
2022/03/07 08:28:07;;;;;;;5.10;4.40;;;9.30;55.90;;;;;;5053179;28;20311;-68
2022/03/07 08:30:34;;;;;;;5.27;4.77;;;9.30;56.60;;;;;;5053216;28;20167;-66
2022/03/07 08:33:00;;;;;;;6.13;5.60;;;9.50;56.60;;;;;;5035838;28;20167;-67
2022/03/07 08:35:26;;;;;;;7.20;5.77;;;9.60;55.90;;;;;;5052803;28;20436;-65
2022/03/07 08:37:54;;;;;;;7.37;5.47;;;9.40;55.80;;;;;;5052899;28;20495;-65
2022/03/07 08:40:22;;;;;;;5.67;4.93;;;8.90;55.90;;;;;;5053105;28;20835;-65
2022/03/07 08:42:49;;;;;;;7.17;5.40;;;9.00;56.20;;;;;;5056068;28;20406;-64
2022/03/07 08:45:14;;;;;;;5.73;5.03;;;9.00;55.80;;;;;;5056578;28;20875;-65
2022/03/07 08:47:41;;;;;;;7.90;5.70;;;8.90;55.70;;;;;;5056972;28;20395;-65
2022/03/07 08:50:09;;;;;;;6.43;5.77;;;9.10;55.30;;;;;;5056846;28;20164;-66
2022/03/07 08:52:36;;;;;;;6.37;5.73;;;9.10;54.70;;;;;;5056905;28;20402;-66
2022/03/07 08:55:22;;;;;;;9.70;5.70;;;8.90;55.20;;;;;;5056396;28;20928;-67
2022/03/07 08:57:51;;;;;;;7.10;5.17;;;8.90;55.30;;;;;;5056699;28;20504;-71
2022/03/07 09:00:17;;;;;;;7.17;4.80;;;8.60;56.10;;;;;;5038990;28;20416;-65
2022/03/07 09:02:43;;;;;;;6.23;5.40;;;9.00;55.80;;;;;;5056467;28;20410;-64
2022/03/07 09:05:09;;;;;;;6.70;5.23;;;9.40;55.40;;;;;;5055888;28;20493;-64
2022/03/07 09:07:35;;;;;;;6.63;5.07;;;9.90;55.00;;;;;;5056564;28;20173;-65
2022/03/07 09:10:01;;;;;;;6.40;5.00;;;10.20;53.30;;;;;;5056549;28;20399;-66
2022/03/07 09:12:29;;;;;;;6.50;5.63;;;10.20;53.20;;;;;;5038529;28;20173;-65
2022/03/07 09:14:57;;;;;;;6.33;5.37;;;10.40;53.30;;;;;;5055984;28;20326;-64
2022/03/07 09:17:23;;;;;;;5.03;4.53;;;10.50;53.00;;;;;;5056336;28;20411;-64
2022/03/07 09:19:49;;;;;;;6.47;5.23;;;10.50;52.70;;;;;;5056185;28;20507;-67
2022/03/07 09:22:15;;;;;;;5.43;4.87;;;10.60;53.00;;;;;;5038445;28;20538;-65
2022/03/07 09:24:40;;;;;;;6.93;5.63;;;10.70;52.40;;;;;;5037868;28;20479;-66
2022/03/07 09:27:06;;;;;;;7.13;5.27;;;10.80;52.50;;;;;;5056520;28;20244;-65
2022/03/07 09:29:32;;;;;;;7.67;5.00;;;10.10;51.80;;;;;;5056056;28;20175;-65
2022/03/07 09:31:57;;;;;;;5.07;4.60;;;9.60;53.80;;;;;;5056246;28;20227;-65
2022/03/07 09:34:23;;;;;;;6.63;5.73;;;9.70;53.90;;;;;;5055607;28;20701;-64
2022/03/07 09:36:48;;;;;;;6.90;5.30;;;9.90;53.80;;;;;;5056002;28;20261;-66
2022/03/07 09:39:14;;;;;;;5.90;5.30;;;10.20;53.20;;;;;;5056300;28;20207;-66
2022/03/07 09:41:43;;;;;;;6.10;5.50;;;10.30;52.40;;;;;;5056217;28;20182;-66
2022/03/07 09:44:09;;;;;;;8.03;5.97;;;10.30;52.60;;;;;;5037593;28;20614;-66
2022/03/07 09:46:36;;;;;;;5.93;5.37;;;10.60;52.20;;;;;;5055761;28;20436;-66
2022/03/07 09:49:02;;;;;;;6.70;5.63;;;10.50;51.90;;;;;;5055970;28;20407;-66
2022/03/07 09:51:27;;;;;;;8.13;5.93;;;9.80;52.80;;;;;;5055768;28;20407;-65
2022/03/07 09:53:53;;;;;;;6.30;5.53;;;9.40;53.90;;;;;;5054190;28;20471;-66
2022/03/07 09:56:19;;;;;;;11.70;5.53;;;9.50;54.60;;;;;;5055559;28;20245;-65
2022/03/07 09:58:45;;;;;;;7.50;4.97;;;10.00;53.40;;;;;;5055563;28;20277;-65
2022/03/07 10:01:13;;;;;;;6.30;5.60;;;10.70;53.10;;;;;;5037664;28;20655;-65
2022/03/07 10:03:40;;;;;;;8.03;5.43;;;11.00;52.70;;;;;;5055068;28;20428;-65
2022/03/07 10:06:17;;;;;;;8.50;5.77;;;11.40;52.30;;;;;;5055479;28;20495;-65
2022/03/07 10:08:56;;;;;;;6.07;5.57;;;11.90;51.60;;;;;;5055506;28;20409;-66
2022/03/07 10:11:23;;;;;;;5.30;4.90;;;12.20;50.70;;;;;;5037616;28;20423;-66
2022/03/07 10:13:57;;;;;;;5.87;5.33;;;12.20;50.50;;;;;;5055114;28;20769;-66
2022/03/07 10:16:23;;;;;;;5.67;5.00;;;12.50;50.30;;;;;;5055368;28;20406;-65
2022/03/07 10:18:54;;;;;;;6.27;5.67;;;12.50;49.60;;;;;;5055010;28;20404;-65
2022/03/07 10:21:27;;;;;;;6.47;5.53;;;12.60;49.50;;;;;;5055023;28;20402;-66
2022/03/07 10:23:57;;;;;;;6.60;6.00;;;12.50;49.00;;;;;;5054901;28;21008;-65
2022/03/07 10:26:24;;;;;;;6.30;5.57;;;12.20;49.80;;;;;;5055134;28;20428;-65
2022/03/07 10:28:57;;;;;;;6.93;6.33;;;11.80;49.80;;;;;;5055144;28;20466;-65
2022/03/07 10:31:24;;;;;;;6.37;5.77;;;11.20;49.80;;;;;;5054989;28;20418;-65
2022/03/07 10:34:19;;;;;;;6.77;5.17;;;10.30;50.30;;;;;;5054843;28;20400;-65
2022/03/07 10:36:46;;;;;;;8.83;5.80;;;9.20;52.50;;;;;;5033794;28;20412;-65
2022/03/07 10:39:21;;;;;;;7.32;5.88;;;8.50;53.00;;;;;;5055032;28;20805;-66
2022/03/07 10:41:47;;;;;;;5.25;4.68;;;7.90;54.10;;;;;;5055179;28;20186;-66
2022/03/07 10:44:37;;;;;;;5.47;4.97;;;7.30;54.80;;;;;;5054327;28;20236;-65
2022/03/07 10:47:11;;;;;;;4.78;4.43;;;6.80;56.20;;;;;;5054889;28;20403;-64
2022/03/07 10:49:57;;;;;;;5.15;4.75;;;6.60;56.40;;;;;;5054751;28;20200;-66
2022/03/07 10:52:25;;;;;;;6.07;4.40;;;6.40;56.90;;;;;;5055006;28;20267;-65
2022/03/07 10:54:51;;;;;;;6.13;5.30;;;6.20;57.10;;;;;;5054104;28;20238;-64
2022/03/07 10:57:19;;;;;;;5.75;4.63;;;6.10;57.20;;;;;;5054472;28;20172;-65
2022/03/07 10:59:46;;;;;;;6.07;4.43;;;5.80;57.10;;;;;;5054529;28;20206;-65
2022/03/07 11:02:17;;;;;;;4.72;3.53;;;5.80;57.70;;;;;;5054430;28;20201;-64
2022/03/07 11:04:48;;;;;;;5.85;4.78;;;6.00;58.10;;;;;;5053828;28;20209;-65
2022/03/07 11:07:14;;;;;;;9.95;6.05;;;6.40;57.50;;;;;;5054525;28;20185;-64
2022/03/07 11:09:41;;;;;;;4.80;4.10;;;6.60;57.10;;;;;;5054260;28;20173;-64
2022/03/07 11:12:14;;;;;;;5.95;5.13;;;6.90;57.20;;;;;;5054419;28;20493;-64
2022/03/07 11:14:41;;;;;;;8.52;5.40;;;7.30;56.10;;;;;;5053726;28;20193;-66
2022/03/07 11:17:13;;;;;;;5.40;4.95;;;7.10;55.60;;;;;;5054336;28;20168;-66
2022/03/07 11:19:41;;;;;;;5.15;4.57;;;6.80;55.70;;;;;;5054061;28;20627;-65
2022/03/07 11:22:07;;;;;;;6.05;4.60;;;6.50;55.80;;;;;;5054052;28;20174;-66
2022/03/07 11:24:36;;;;;;;6.07;4.10;;;6.60;56.30;;;;;;5053597;28;20205;-63
2022/03/07 11:27:02;;;;;;;4.32;3.90;;;6.80;56.30;;;;;;5054147;28;20691;-64
2022/03/07 11:29:38;;;;;;;5.82;5.10;;;6.90;55.80;;;;;;5054004;28;20531;-66
2022/03/07 11:32:10;;;;;;;5.72;5.13;;;6.80;55.60;;;;;;5054004;28;20555;-64
2022/03/07 11:34:36;;;;;;;5.28;4.75;;;6.80;55.90;;;;;;5053454;28;20186;-64
2022/03/07 11:37:14;;;;;;;4.45;3.28;;;6.70;55.90;;;;;;5053787;28;20176;-64
2022/03/07 11:39:40;;;;;;;9.98;6.30;;;6.60;55.20;;;;;;5053838;28;20178;-64
2022/03/07 11:42:15;;;;;;;5.10;4.38;;;6.30;55.60;;;;;;5053585;28;20522;-66
2022/03/07 11:44:42;;;;;;;7.53;5.13;;;6.20;56.20;;;;;;5035316;28;20204;-64
2022/03/07 11:47:14;;;;;;;6.60;4.90;;;6.10;56.20;;;;;;5053736;28;20167;-66
2022/03/07 11:49:40;;;;;;;6.90;5.18;;;6.10;56.30;;;;;;5053734;28;20502;-65
2022/03/07 11:52:08;;;;;;;6.50;5.20;;;6.20;56.50;;;;;;5053386;28;20170;-66
2022/03/07 11:54:38;;;;;;;5.10;4.63;;;6.10;55.80;;;;;;5053184;28;20662;-65
2022/03/07 11:57:09;;;;;;;5.95;4.90;;;6.00;56.40;;;;;;5053735;28;20606;-65
2022/03/07 11:59:35;;;;;;;5.50;4.30;;;5.90;56.30;;;;;;5053484;28;20174;-65
2022/03/07 12:02:01;;;;;;;6.27;4.43;;;5.80;56.30;;;;;;5035653;28;20685;-65
2022/03/07 12:04:38;;;;;;;6.32;5.57;;;5.60;56.50;;;;;;5052748;28;20212;-65
2022/03/07 12:07:03;;;;;;;7.40;5.65;;;5.50;56.90;;;;;;5053532;28;20211;-65
2022/03/07 12:09:32;;;;;;;5.10;4.30;;;5.40;57.10;;;;;;5053426;28;20651;-65
2022/03/07 12:12:06;;;;;;;6.07;5.28;;;5.50;57.00;;;;;;5053284;28;20403;-65
2022/03/07 12:14:38;;;;;;;5.38;4.75;;;5.40;56.80;;;;;;5052917;28;20247;-65
2022/03/07 12:17:19;;;;;;;5.22;4.55;;;5.40;57.00;;;;;;5052799;28;20196;-65
2022/03/07 12:19:56;;;;;;;4.28;3.85;;;5.40;57.00;;;;;;5053309;28;20567;-65
2022/03/07 12:22:25;;;;;;;6.85;5.40;;;5.50;57.10;;;;;;5053368;28;20223;-64
2022/03/07 12:24:53;;;;;;;3.88;3.55;;;5.50;56.70;;;;;;5052648;28;20266;-64
2022/03/07 12:27:18;;;;;;;7.05;4.72;;;5.50;56.60;;;;;;5053120;28;20185;-64
2022/03/07 12:29:45;;;;;;;7.30;5.07;;;5.50;56.60;;;;;;5053190;28;20161;-65
2022/03/07 12:32:11;;;;;;;4.65;3.75;;;5.40;56.40;;;;;;5052991;28;20174;-66
2022/03/07 12:34:40;;;;;;;10.30;5.53;;;5.40;56.50;;;;;;5052628;28;20684;-65
2022/03/07 12:37:16;;;;;;;4.63;4.22;;;5.30;56.60;;;;;;5052942;28;20261;-65
2022/03/07 12:39:50;;;;;;;6.93;5.50;;;5.20;56.50;;;;;;5053190;28;20618;-64
2022/03/07 12:42:20;;;;;;;7.03;5.05;;;5.20;56.70;;;;;;5053096;28;20172;-65
2022/03/07 12:44:47;;;;;;;6.28;5.07;;;5.20;56.70;;;;;;5052510;28;20193;-65
2022/03/07 12:47:13;;;;;;;6.50;4.97;;;5.10;56.90;;;;;;5052905;28;20165;-65
2022/03/07 12:49:39;;;;;;;5.60;4.20;;;5.20;56.70;;;;;;5052382;28;20170;-66
2022/03/07 12:52:08;;;;;;;5.50;3.83;;;5.20;56.70;;;;;;5052551;28;20274;-66